createdAt,value
2022-09-28T00:00:48.443Z,938.82
2022-09-28T00:01:48.570Z,938.88
2022-09-28T00:02:48.549Z,938.79
2022-09-28T00:03:48.389Z,938.72
2022-09-28T00:04:48.374Z,938.75
2022-09-28T00:05:48.390Z,938.76
2022-09-28T00:06:48.352Z,938.81
2022-09-28T00:07:48.403Z,938.82
2022-09-28T00:08:48.330Z,938.80
2022-09-28T00:09:48.320Z,938.74
2022-09-28T00:10:48.332Z,938.72
2022-09-28T00:11:48.311Z,938.71
2022-09-28T00:12:48.281Z,938.70
2022-09-28T00:13:48.271Z,938.70
2022-09-28T00:14:48.260Z,938.70
2022-09-28T00:15:48.252Z,938.63
2022-09-28T00:16:48.336Z,938.65
2022-09-28T00:17:48.231Z,938.67
2022-09-28T00:18:48.220Z,938.56
2022-09-28T00:19:48.214Z,938.61
2022-09-28T00:20:48.201Z,938.62
2022-09-28T00:21:48.209Z,938.61
2022-09-28T00:22:48.168Z,938.63
2022-09-28T00:23:48.158Z,938.69
2022-09-28T00:24:48.149Z,938.54
2022-09-28T00:25:48.139Z,938.55
2022-09-28T00:26:48.118Z,938.54
2022-09-28T00:27:48.139Z,938.50
2022-09-28T00:28:48.100Z,938.53
2022-09-28T00:29:48.099Z,938.47
2022-09-28T00:30:48.078Z,938.47
2022-09-28T00:31:48.163Z,938.47
2022-09-28T00:32:48.079Z,938.52
2022-09-28T00:33:48.079Z,938.51
2022-09-28T00:34:48.078Z,938.48
2022-09-28T00:35:48.027Z,938.49
2022-09-28T00:36:48.009Z,938.50
2022-09-28T00:37:48.007Z,938.45
2022-09-28T00:38:47.985Z,938.51
2022-09-28T00:39:47.986Z,938.47
2022-09-28T00:40:48.022Z,938.46
2022-09-28T00:41:47.956Z,938.47
2022-09-28T00:42:47.936Z,938.45
2022-09-28T00:43:47.934Z,938.45
2022-09-28T00:44:47.908Z,938.36
2022-09-28T00:45:47.960Z,938.36
2022-09-28T00:46:47.894Z,938.33
2022-09-28T00:47:47.885Z,938.31
2022-09-28T00:48:47.868Z,938.29
2022-09-28T00:49:47.856Z,938.27
2022-09-28T00:50:47.855Z,938.25
2022-09-28T00:51:47.844Z,938.20
2022-09-28T00:52:47.828Z,938.29
2022-09-28T00:53:47.814Z,938.19
2022-09-28T00:54:47.794Z,938.25
2022-09-28T00:55:47.818Z,938.22
2022-09-28T00:56:47.785Z,938.23
2022-09-28T00:57:47.795Z,938.09
2022-09-28T00:58:47.757Z,938.04
2022-09-28T00:59:47.751Z,938.01
2022-09-28T01:00:47.781Z,938.02
2022-09-28T01:01:47.753Z,938.02
2022-09-28T01:02:47.712Z,937.98
2022-09-28T01:03:47.773Z,937.95
2022-09-28T01:04:47.684Z,937.99
2022-09-28T01:05:47.673Z,937.98
2022-09-28T01:06:47.664Z,938.00
2022-09-28T01:07:47.661Z,937.94
2022-09-28T01:08:47.662Z,938.05
2022-09-28T01:09:47.633Z,938.05
2022-09-28T01:10:47.631Z,938.05
2022-09-28T01:11:47.602Z,937.93
2022-09-28T01:12:47.601Z,937.98
2022-09-28T01:13:47.599Z,937.98
2022-09-28T01:14:47.571Z,937.94
2022-09-28T01:15:47.625Z,937.90
2022-09-28T01:16:47.573Z,937.91
2022-09-28T01:17:47.569Z,937.85
2022-09-28T01:18:47.548Z,937.85
2022-09-28T01:19:47.518Z,937.83
2022-09-28T01:20:47.510Z,937.81
2022-09-28T01:21:47.491Z,937.81
2022-09-28T01:22:47.478Z,937.70
2022-09-28T01:23:47.490Z,937.67
2022-09-28T01:24:47.457Z,937.67
2022-09-28T01:25:47.448Z,937.63
2022-09-28T01:26:47.438Z,937.58
2022-09-28T01:27:47.449Z,937.60
2022-09-28T01:28:47.417Z,937.54
2022-09-28T01:29:47.397Z,937.49
2022-09-28T01:30:47.427Z,937.46
2022-09-28T01:31:47.449Z,937.46
2022-09-28T01:32:47.358Z,937.44
2022-09-28T01:33:47.358Z,937.38
2022-09-28T01:34:47.350Z,937.38
2022-09-28T01:35:47.335Z,937.32
2022-09-28T01:36:47.331Z,937.29
2022-09-28T01:37:47.308Z,937.26
2022-09-28T01:38:47.334Z,937.26
2022-09-28T01:39:47.288Z,937.23
2022-09-28T01:40:47.346Z,937.13
2022-09-28T01:41:47.267Z,937.18
2022-09-28T01:42:47.278Z,937.21
2022-09-28T01:43:47.245Z,937.18
2022-09-28T01:44:47.236Z,937.17
2022-09-28T01:45:47.304Z,937.12
2022-09-28T01:46:47.258Z,937.07
2022-09-28T01:47:47.194Z,937.09
2022-09-28T01:48:47.184Z,937.07
2022-09-28T01:49:47.210Z,937.11
2022-09-28T01:50:47.172Z,937.02
2022-09-28T01:51:47.148Z,937.02
2022-09-28T01:52:47.134Z,937.02
2022-09-28T01:53:47.124Z,936.98
2022-09-28T01:54:47.122Z,936.98
2022-09-28T01:55:47.113Z,936.99
2022-09-28T01:56:47.104Z,936.96
2022-09-28T01:57:47.082Z,936.88
2022-09-28T01:58:47.072Z,936.88
2022-09-28T01:59:47.062Z,936.81
2022-09-28T02:00:47.081Z,936.79
2022-09-28T02:01:47.104Z,936.79
2022-09-28T02:02:47.031Z,936.74
2022-09-28T02:03:47.020Z,936.75
2022-09-28T02:04:46.998Z,936.74
2022-09-28T02:05:46.990Z,936.70
2022-09-28T02:06:46.979Z,936.69
2022-09-28T02:07:46.981Z,936.70
2022-09-28T02:08:46.950Z,936.63
2022-09-28T02:09:46.948Z,936.61
2022-09-28T02:10:46.935Z,936.60
2022-09-28T02:11:46.928Z,936.55
2022-09-28T02:12:46.910Z,936.55
2022-09-28T02:13:46.920Z,936.59
2022-09-28T02:14:46.889Z,936.61
2022-09-28T02:15:46.871Z,936.54
2022-09-28T02:16:46.904Z,936.44
2022-09-28T02:17:46.852Z,936.46
2022-09-28T02:18:46.858Z,936.42
2022-09-28T02:19:46.838Z,936.49
2022-09-28T02:20:46.821Z,936.43
2022-09-28T02:21:46.808Z,936.42
2022-09-28T02:22:46.798Z,936.44
2022-09-28T02:23:46.778Z,936.36
2022-09-28T02:24:46.778Z,936.30
2022-09-28T02:25:46.760Z,936.30
2022-09-28T02:26:46.755Z,936.34
2022-09-28T02:27:46.748Z,936.34
2022-09-28T02:28:46.730Z,936.32
2022-09-28T02:29:46.716Z,936.33
2022-09-28T02:30:46.697Z,936.31
2022-09-28T02:31:46.725Z,936.29
2022-09-28T02:32:46.681Z,936.24
2022-09-28T02:33:46.684Z,936.31
2022-09-28T02:34:46.658Z,936.24
2022-09-28T02:35:46.656Z,936.18
2022-09-28T02:36:46.635Z,936.21
2022-09-28T02:37:46.642Z,936.22
2022-09-28T02:38:46.605Z,936.19
2022-09-28T02:39:46.612Z,936.16
2022-09-28T02:40:46.665Z,936.17
2022-09-28T02:41:46.574Z,936.11
2022-09-28T02:42:46.565Z,936.09
2022-09-28T02:43:46.565Z,936.04
2022-09-28T02:44:46.549Z,936.05
2022-09-28T02:45:46.587Z,936.02
2022-09-28T02:46:46.513Z,935.98
2022-09-28T02:47:46.512Z,935.89
2022-09-28T02:48:55.828Z,935.94
2022-09-28T02:49:47.482Z,935.89
2022-09-28T02:50:46.484Z,935.90
2022-09-28T02:51:46.464Z,935.90
2022-09-28T02:52:46.451Z,935.91
2022-09-28T02:53:46.446Z,935.90
2022-09-28T02:54:46.432Z,935.86
2022-09-28T02:55:46.425Z,935.85
2022-09-28T02:56:46.436Z,935.79
2022-09-28T02:57:46.420Z,935.84
2022-09-28T02:58:46.381Z,935.83
2022-09-28T02:59:46.371Z,935.87
2022-09-28T03:00:46.391Z,935.76
2022-09-28T03:01:46.392Z,935.77
2022-09-28T03:02:46.372Z,935.86
2022-09-28T03:03:46.331Z,935.75
2022-09-28T03:04:46.315Z,935.86
2022-09-28T03:05:46.319Z,935.76
2022-09-28T03:06:46.300Z,935.80
2022-09-28T03:07:46.299Z,935.79
2022-09-28T03:08:46.269Z,935.78
2022-09-28T03:09:46.268Z,935.77
2022-09-28T03:10:46.251Z,935.76
2022-09-28T03:11:46.240Z,935.82
2022-09-28T03:12:46.237Z,935.81
2022-09-28T03:13:46.228Z,935.80
2022-09-28T03:14:46.198Z,935.74
2022-09-28T03:15:48.851Z,935.76
2022-09-28T03:16:46.254Z,935.72
2022-09-28T03:17:46.185Z,935.85
2022-09-28T03:18:46.168Z,935.78
2022-09-28T03:19:46.154Z,935.75
2022-09-28T03:20:46.133Z,935.76
2022-09-28T03:21:46.130Z,935.71
2022-09-28T03:22:56.008Z,935.73
2022-09-28T03:23:47.121Z,935.69
2022-09-28T03:24:46.105Z,935.73
2022-09-28T03:25:46.087Z,935.69
2022-09-28T03:26:46.068Z,935.71
2022-09-28T03:27:46.065Z,935.70
2022-09-28T03:28:46.059Z,935.65
2022-09-28T03:29:46.038Z,935.63
2022-09-28T03:30:46.045Z,935.69
2022-09-28T03:31:46.081Z,935.67
2022-09-28T03:32:46.004Z,935.70
2022-09-28T03:33:46.006Z,935.65
2022-09-28T03:34:45.976Z,935.55
2022-09-28T03:35:46.003Z,935.56
2022-09-28T03:36:45.964Z,935.60
2022-09-28T03:37:45.952Z,935.55
2022-09-28T03:38:45.945Z,935.51
2022-09-28T03:39:45.922Z,935.54
2022-09-28T03:40:45.953Z,935.58
2022-09-28T03:41:45.904Z,935.59
2022-09-28T03:42:45.883Z,935.49
2022-09-28T03:43:45.893Z,935.52
2022-09-28T03:44:45.873Z,935.52
2022-09-28T03:45:45.894Z,935.39
2022-09-28T03:46:45.916Z,935.39
2022-09-28T03:47:45.842Z,935.45
2022-09-28T03:48:45.826Z,935.50
2022-09-28T03:49:45.834Z,935.43
2022-09-28T03:50:45.808Z,935.51
2022-09-28T03:51:45.793Z,935.49
2022-09-28T03:52:45.790Z,935.49
2022-09-28T03:53:45.783Z,935.51
2022-09-28T03:54:49.035Z,935.46
2022-09-28T03:55:45.752Z,935.38
2022-09-28T03:56:45.730Z,935.43
2022-09-28T03:57:45.749Z,935.39
2022-09-28T03:58:45.710Z,935.51
2022-09-28T03:59:45.731Z,935.42
2022-09-28T04:00:45.757Z,935.49
2022-09-28T04:01:45.755Z,935.48
2022-09-28T04:02:45.670Z,935.47
2022-09-28T04:03:45.676Z,935.46
2022-09-28T04:04:45.640Z,935.42
2022-09-28T04:05:45.629Z,935.36
2022-09-28T04:06:45.633Z,935.37
2022-09-28T04:07:45.619Z,935.41
2022-09-28T04:08:45.622Z,935.39
2022-09-28T04:09:45.597Z,935.33
2022-09-28T04:10:45.576Z,935.37
2022-09-28T04:12:02.772Z,935.42
2022-09-28T04:12:46.550Z,935.40
2022-09-28T04:13:45.546Z,935.36
2022-09-28T04:14:45.543Z,935.41
2022-09-28T04:15:45.520Z,935.30
2022-09-28T04:16:45.563Z,935.27
2022-09-28T04:17:45.501Z,935.31
2022-09-28T04:18:45.492Z,935.32
2022-09-28T04:19:45.489Z,935.33
2022-09-28T04:20:45.465Z,935.32
2022-09-28T04:21:45.465Z,935.30
2022-09-28T04:22:45.490Z,935.29
2022-09-28T04:23:45.436Z,935.24
2022-09-28T04:24:45.416Z,935.24
2022-09-28T04:25:45.404Z,935.25
2022-09-28T04:26:45.408Z,935.29
2022-09-28T04:27:45.453Z,935.33
2022-09-28T04:28:45.384Z,935.30
2022-09-28T04:29:45.366Z,935.29
2022-09-28T04:30:45.351Z,935.34
2022-09-28T04:31:45.391Z,935.31
2022-09-28T04:32:45.334Z,935.34
2022-09-28T04:33:45.324Z,935.39
2022-09-28T04:34:45.303Z,935.29
2022-09-28T04:35:45.312Z,935.29
2022-09-28T04:36:45.295Z,935.35
2022-09-28T04:37:45.292Z,935.32
2022-09-28T04:38:53.602Z,935.25
2022-09-28T04:39:48.415Z,935.29
2022-09-28T04:40:45.257Z,935.32
2022-09-28T04:41:45.236Z,935.27
2022-09-28T04:42:45.212Z,935.31
2022-09-28T04:43:45.222Z,935.27
2022-09-28T04:44:45.190Z,935.24
2022-09-28T04:45:45.253Z,935.28
2022-09-28T04:46:45.172Z,935.27
2022-09-28T04:47:45.161Z,935.27
2022-09-28T04:48:45.152Z,935.24
2022-09-28T04:49:45.139Z,935.24
2022-09-28T04:50:45.120Z,935.26
2022-09-28T04:51:45.123Z,935.21
2022-09-28T04:52:45.098Z,935.20
2022-09-28T04:53:45.107Z,935.17
2022-09-28T04:54:45.079Z,935.21
2022-09-28T04:55:45.068Z,935.21
2022-09-28T04:56:45.060Z,935.17
2022-09-28T04:57:45.047Z,935.14
2022-09-28T04:58:47.920Z,935.14
2022-09-28T04:59:46.017Z,935.13
2022-09-28T05:00:45.039Z,935.12
2022-09-28T05:01:44.999Z,935.08
2022-09-28T05:02:45.024Z,935.07
2022-09-28T05:03:44.976Z,935.07
2022-09-28T05:04:44.997Z,935.02
2022-09-28T05:05:44.959Z,934.94
2022-09-28T05:06:44.944Z,934.96
2022-09-28T05:07:44.935Z,934.97
2022-09-28T05:08:44.929Z,934.97
2022-09-28T05:09:44.916Z,934.94
2022-09-28T05:10:44.905Z,934.95
2022-09-28T05:11:44.895Z,934.96
2022-09-28T05:12:44.880Z,934.94
2022-09-28T05:13:44.867Z,934.83
2022-09-28T05:14:44.856Z,934.86
2022-09-28T05:15:44.847Z,934.85
2022-09-28T05:16:44.941Z,934.85
2022-09-28T05:17:44.824Z,934.85
2022-09-28T05:18:44.805Z,934.79
2022-09-28T05:19:44.828Z,934.71
2022-09-28T05:20:44.784Z,934.77
2022-09-28T05:21:44.774Z,934.83
2022-09-28T05:22:44.786Z,934.79
2022-09-28T05:23:44.796Z,934.69
2022-09-28T05:24:44.745Z,934.70
2022-09-28T05:25:44.729Z,934.74
2022-09-28T05:26:44.713Z,934.71
2022-09-28T05:27:44.710Z,934.75
2022-09-28T05:28:44.732Z,934.74
2022-09-28T05:29:44.682Z,934.73
2022-09-28T05:30:44.672Z,934.76
2022-09-28T05:31:44.728Z,934.75
2022-09-28T05:32:44.650Z,934.77
2022-09-28T05:33:44.642Z,934.77
2022-09-28T05:34:44.633Z,934.71
2022-09-28T05:35:44.617Z,934.79
2022-09-28T05:36:44.607Z,934.71
2022-09-28T05:37:44.595Z,934.71
2022-09-28T05:38:44.596Z,934.63
2022-09-28T05:39:44.571Z,934.61
2022-09-28T05:40:44.620Z,934.61
2022-09-28T05:41:44.539Z,934.53
2022-09-28T05:42:44.540Z,934.57
2022-09-28T05:43:44.531Z,934.52
2022-09-28T05:44:44.762Z,934.55
2022-09-28T05:45:44.558Z,934.61
2022-09-28T05:46:44.491Z,934.51
2022-09-28T05:47:44.480Z,934.45
2022-09-28T05:48:44.475Z,934.45
2022-09-28T05:49:44.484Z,934.44
2022-09-28T05:50:44.469Z,934.46
2022-09-28T05:51:44.428Z,934.55
2022-09-28T05:52:44.418Z,934.50
2022-09-28T05:53:44.458Z,934.48
2022-09-28T05:54:44.397Z,934.43
2022-09-28T05:55:44.386Z,934.49
2022-09-28T05:56:44.392Z,934.46
2022-09-28T05:57:44.366Z,934.49
2022-09-28T05:58:44.366Z,934.44
2022-09-28T05:59:44.346Z,934.45
2022-09-28T06:00:44.342Z,934.46
2022-09-28T06:01:44.354Z,934.44
2022-09-28T06:02:44.397Z,934.35
2022-09-28T06:03:44.338Z,934.47
2022-09-28T06:04:44.296Z,934.39
2022-09-28T06:05:44.270Z,934.38
2022-09-28T06:06:44.304Z,934.34
2022-09-28T06:07:44.245Z,934.40
2022-09-28T06:08:44.244Z,934.38
2022-09-28T06:09:44.252Z,934.42
2022-09-28T06:10:44.229Z,934.35
2022-09-28T06:11:44.197Z,934.45
2022-09-28T06:12:44.205Z,934.50
2022-09-28T06:13:44.175Z,934.45
2022-09-28T06:14:44.164Z,934.51
2022-09-28T06:15:44.156Z,934.50
2022-09-28T06:16:44.248Z,934.50
2022-09-28T06:17:44.132Z,934.47
2022-09-28T06:18:44.173Z,934.43
2022-09-28T06:19:44.105Z,934.58
2022-09-28T06:20:44.105Z,934.51
2022-09-28T06:21:44.086Z,934.54
2022-09-28T06:22:44.082Z,934.56
2022-09-28T06:23:48.811Z,934.55
2022-09-28T06:24:45.053Z,934.61
2022-09-28T06:25:44.033Z,934.47
2022-09-28T06:26:44.033Z,934.54
2022-09-28T06:27:44.031Z,934.50
2022-09-28T06:28:44.004Z,934.59
2022-09-28T06:29:43.991Z,934.60
2022-09-28T06:30:44.050Z,934.54
2022-09-28T06:31:43.971Z,934.55
2022-09-28T06:32:43.971Z,934.54
2022-09-28T06:33:43.982Z,934.52
2022-09-28T06:34:43.943Z,934.46
2022-09-28T06:35:43.929Z,934.52
2022-09-28T06:36:43.910Z,934.41
2022-09-28T06:37:43.921Z,934.39
2022-09-28T06:38:43.890Z,934.35
2022-09-28T06:39:43.879Z,934.31
2022-09-28T06:40:43.913Z,934.35
2022-09-28T06:41:43.859Z,934.35
2022-09-28T06:42:43.848Z,934.39
2022-09-28T06:43:43.839Z,934.37
2022-09-28T06:44:43.840Z,934.42
2022-09-28T06:45:43.877Z,934.31
2022-09-28T06:46:43.806Z,934.37
2022-09-28T06:47:43.799Z,934.38
2022-09-28T06:48:43.778Z,934.37
2022-09-28T06:49:43.767Z,934.40
2022-09-28T06:50:43.757Z,934.38
2022-09-28T06:51:43.749Z,934.40
2022-09-28T06:52:43.747Z,934.41
2022-09-28T06:53:43.724Z,934.44
2022-09-28T06:54:43.717Z,934.48
2022-09-28T06:55:43.698Z,934.41
2022-09-28T06:56:43.687Z,934.46
2022-09-28T06:57:43.678Z,934.48
2022-09-28T06:58:43.686Z,934.48
2022-09-28T06:59:43.689Z,934.59
2022-09-28T07:00:43.646Z,934.52
2022-09-28T07:01:43.736Z,934.55
2022-09-28T07:02:43.700Z,934.52
2022-09-28T07:03:43.604Z,934.62
2022-09-28T07:04:43.595Z,934.58
2022-09-28T07:05:43.593Z,934.52
2022-09-28T07:06:43.575Z,934.53
2022-09-28T07:07:43.585Z,934.56
2022-09-28T07:08:43.565Z,934.61
2022-09-28T07:09:46.601Z,934.64
2022-09-28T07:10:44.525Z,934.63
2022-09-28T07:11:43.564Z,934.52
2022-09-28T07:12:43.503Z,934.62
2022-09-28T07:13:50.833Z,934.66
2022-09-28T07:14:48.024Z,934.59
2022-09-28T07:15:43.473Z,934.71
2022-09-28T07:17:08.714Z,934.64
2022-09-28T07:17:59.322Z,934.70
2022-09-28T07:18:44.443Z,934.76
2022-09-28T07:19:43.435Z,934.82
2022-09-28T07:20:52.559Z,934.76
2022-09-28T07:21:45.882Z,934.80
2022-09-28T07:22:44.028Z,934.70
2022-09-28T07:23:52.254Z,934.75
2022-09-28T07:24:44.382Z,934.75
2022-09-28T07:25:43.371Z,934.77
2022-09-28T07:26:43.350Z,934.82
2022-09-28T07:27:43.372Z,934.74
2022-09-28T07:28:43.333Z,934.79
2022-09-28T07:29:43.330Z,934.79
2022-09-28T07:30:43.384Z,934.83
2022-09-28T07:31:43.291Z,934.78
2022-09-28T07:32:43.279Z,934.81
2022-09-28T07:33:43.269Z,934.83
2022-09-28T07:34:43.259Z,934.79
2022-09-28T07:35:43.274Z,934.79
2022-09-28T07:36:43.233Z,934.80
2022-09-28T07:37:43.219Z,934.74
2022-09-28T07:38:43.211Z,934.81
2022-09-28T07:39:43.562Z,934.78
2022-09-28T07:40:47.660Z,934.83
2022-09-28T07:41:44.178Z,934.72
2022-09-28T07:42:43.166Z,934.77
2022-09-28T07:43:43.156Z,934.78
2022-09-28T07:44:43.138Z,934.79
2022-09-28T07:45:43.202Z,934.79
2022-09-28T07:46:43.121Z,934.86
2022-09-28T07:47:43.112Z,934.77
2022-09-28T07:48:43.097Z,934.77
2022-09-28T07:49:43.088Z,934.72
2022-09-28T07:50:43.086Z,934.81
2022-09-28T07:51:43.096Z,934.81
2022-09-28T07:52:43.054Z,934.72
2022-09-28T07:53:43.036Z,934.75
2022-09-28T07:54:43.027Z,934.76
2022-09-28T07:55:43.015Z,934.75
2022-09-28T07:56:43.016Z,934.86
2022-09-28T07:57:43.006Z,934.85
2022-09-28T07:58:42.995Z,934.84
2022-09-28T07:59:42.979Z,934.85
2022-09-28T08:00:42.954Z,934.80
2022-09-28T08:01:43.009Z,934.90
2022-09-28T08:02:42.985Z,934.90
2022-09-28T08:03:42.932Z,934.89
2022-09-28T08:04:42.912Z,934.88
2022-09-28T08:05:42.920Z,934.91
2022-09-28T08:06:42.894Z,934.93
2022-09-28T08:07:42.884Z,934.96
2022-09-28T08:08:42.864Z,934.95
2022-09-28T08:09:42.854Z,934.94
2022-09-28T08:10:46.512Z,934.95
2022-09-28T08:11:42.869Z,934.97
2022-09-28T08:12:42.822Z,935.01
2022-09-28T08:13:42.811Z,934.97
2022-09-28T08:14:42.814Z,934.93
2022-09-28T08:15:42.875Z,934.95
2022-09-28T08:16:42.786Z,934.94
2022-09-28T08:17:42.771Z,935.01
2022-09-28T08:18:42.753Z,935.06
2022-09-28T08:19:42.742Z,935.21
2022-09-28T08:20:42.731Z,935.18
2022-09-28T08:21:42.713Z,935.16
2022-09-28T08:22:42.721Z,935.18
2022-09-28T08:23:42.701Z,935.07
2022-09-28T08:24:42.683Z,935.15
2022-09-28T08:25:42.670Z,935.14
2022-09-28T08:26:42.660Z,935.22
2022-09-28T08:27:42.652Z,935.20
2022-09-28T08:28:42.658Z,935.10
2022-09-28T08:29:42.650Z,935.15
2022-09-28T08:30:42.628Z,935.19
2022-09-28T08:31:42.790Z,935.16
2022-09-28T08:32:42.600Z,935.13
2022-09-28T08:33:42.588Z,935.20
2022-09-28T08:34:42.570Z,935.16
2022-09-28T08:35:42.559Z,935.17
2022-09-28T08:36:42.552Z,935.10
2022-09-28T08:37:45.861Z,935.16
2022-09-28T08:38:43.545Z,935.16
2022-09-28T08:39:42.520Z,935.22
2022-09-28T08:40:42.572Z,935.20
2022-09-28T08:41:42.491Z,935.21
2022-09-28T08:42:42.481Z,935.16
2022-09-28T08:43:42.478Z,935.31
2022-09-28T08:45:42.466Z,935.27
2022-09-28T08:46:42.439Z,935.21
2022-09-28T08:47:42.426Z,935.27
2022-09-28T08:48:42.639Z,935.34
2022-09-28T08:49:42.456Z,935.34
2022-09-28T08:50:42.385Z,935.32
2022-09-28T08:51:42.376Z,935.42
2022-09-28T08:52:42.377Z,935.43
2022-09-28T08:53:42.347Z,935.53
2022-09-28T08:54:42.345Z,935.57
2022-09-28T08:55:42.336Z,935.60
2022-09-28T08:56:42.374Z,935.66
2022-09-28T08:57:43.396Z,935.75
2022-09-28T08:58:42.295Z,935.74
2022-09-28T08:59:42.285Z,935.81
2022-09-28T09:00:42.285Z,935.99
2022-09-28T09:01:42.325Z,935.99
2022-09-28T09:02:42.325Z,935.93
2022-09-28T09:03:42.262Z,936.03
2022-09-28T09:04:42.246Z,936.13
2022-09-28T09:05:42.224Z,936.17
2022-09-28T09:06:42.238Z,936.17
2022-09-28T09:07:42.193Z,936.21
2022-09-28T09:08:42.193Z,936.22
2022-09-28T09:09:42.163Z,936.13
2022-09-28T09:10:42.164Z,936.12
2022-09-28T09:11:42.143Z,936.19
2022-09-28T09:12:42.228Z,936.19
2022-09-28T09:13:42.145Z,936.17
2022-09-28T09:14:42.123Z,936.23
2022-09-28T09:15:42.114Z,936.13
2022-09-28T09:16:42.259Z,936.20
2022-09-28T09:17:42.121Z,936.18
2022-09-28T09:18:42.082Z,936.21
2022-09-28T09:19:42.053Z,936.09
2022-09-28T09:20:42.051Z,935.99
2022-09-28T09:21:42.123Z,935.93
2022-09-28T09:22:42.021Z,936.04
2022-09-28T09:23:42.017Z,936.20
2022-09-28T09:24:42.010Z,936.28
2022-09-28T09:25:41.988Z,936.19
2022-09-28T09:26:41.972Z,936.22
2022-09-28T09:27:41.960Z,936.28
2022-09-28T09:28:41.972Z,936.26
2022-09-28T09:29:41.985Z,936.39
2022-09-28T09:30:41.998Z,936.39
2022-09-28T09:31:41.920Z,936.39
2022-09-28T09:32:41.921Z,936.43
2022-09-28T09:33:41.979Z,936.38
2022-09-28T09:34:41.888Z,936.30
2022-09-28T09:35:41.938Z,936.35
2022-09-28T09:36:41.859Z,936.34
2022-09-28T09:37:41.850Z,936.35
2022-09-28T09:38:41.839Z,936.39
2022-09-28T09:39:41.828Z,936.47
2022-09-28T09:40:41.857Z,936.45
2022-09-28T09:41:41.817Z,936.49
2022-09-28T09:42:41.788Z,936.41
2022-09-28T09:43:41.779Z,936.43
2022-09-28T09:44:41.774Z,936.47
2022-09-28T09:45:41.827Z,936.47
2022-09-28T09:46:41.767Z,936.51
2022-09-28T09:47:41.739Z,936.44
2022-09-28T09:48:41.726Z,936.44
2022-09-28T09:49:41.706Z,936.57
2022-09-28T09:50:41.706Z,936.53
2022-09-28T09:51:41.686Z,936.51
2022-09-28T09:52:44.307Z,936.51
2022-09-28T09:53:41.664Z,936.55
2022-09-28T09:54:41.658Z,936.47
2022-09-28T09:55:41.645Z,936.51
2022-09-28T09:56:41.710Z,936.46
2022-09-28T09:57:41.644Z,936.50
2022-09-28T09:58:41.697Z,936.57
2022-09-28T09:59:41.595Z,936.58
2022-09-28T10:00:41.584Z,936.64
2022-09-28T10:01:41.641Z,936.51
2022-09-28T10:02:41.623Z,936.48
2022-09-28T10:03:41.557Z,936.58
2022-09-28T10:04:41.543Z,936.66
2022-09-28T10:05:41.524Z,936.63
2022-09-28T10:06:41.522Z,936.68
2022-09-28T10:07:43.579Z,936.68
2022-09-28T10:08:41.504Z,936.73
2022-09-28T10:09:41.486Z,936.71
2022-09-28T10:10:41.471Z,936.71
2022-09-28T10:11:41.454Z,936.74
2022-09-28T10:12:41.459Z,936.73
2022-09-28T10:13:41.442Z,936.72
2022-09-28T10:14:41.424Z,936.79
2022-09-28T10:15:41.420Z,936.78
2022-09-28T10:16:41.478Z,936.74
2022-09-28T10:17:41.402Z,936.70
2022-09-28T10:18:41.401Z,936.76
2022-09-28T10:19:41.391Z,936.71
2022-09-28T10:20:41.350Z,936.68
2022-09-28T10:21:41.340Z,936.69
2022-09-28T10:22:41.330Z,936.70
2022-09-28T10:23:41.321Z,936.77
2022-09-28T10:24:41.338Z,936.76
2022-09-28T10:25:41.300Z,936.72
2022-09-28T10:26:41.289Z,936.79
2022-09-28T10:27:41.280Z,936.77
2022-09-28T10:28:41.269Z,936.77
2022-09-28T10:29:41.249Z,936.79
2022-09-28T10:30:41.299Z,936.80
2022-09-28T10:31:41.228Z,936.77
2022-09-28T10:32:41.217Z,936.79
2022-09-28T10:33:41.207Z,936.76
2022-09-28T10:34:41.196Z,936.75
2022-09-28T10:35:41.194Z,936.79
2022-09-28T10:36:41.178Z,936.84
2022-09-28T10:37:41.208Z,936.83
2022-09-28T10:38:41.147Z,936.86
2022-09-28T10:39:41.137Z,936.75
2022-09-28T10:40:41.190Z,936.70
2022-09-28T10:41:41.127Z,936.73
2022-09-28T10:42:41.107Z,936.66
2022-09-28T10:43:41.096Z,936.77
2022-09-28T10:44:41.087Z,936.78
2022-09-28T10:45:41.112Z,936.77
2022-09-28T10:46:41.087Z,936.82
2022-09-28T10:47:41.062Z,936.80
2022-09-28T10:48:41.037Z,936.78
2022-09-28T10:49:45.850Z,936.62
2022-09-28T10:50:42.015Z,936.53
2022-09-28T10:51:41.005Z,936.50
2022-09-28T10:52:41.004Z,936.62
2022-09-28T10:53:40.998Z,936.68
2022-09-28T10:54:40.964Z,936.68
2022-09-28T10:55:40.957Z,936.69
2022-09-28T10:56:40.955Z,936.69
2022-09-28T10:57:40.945Z,936.66
2022-09-28T10:58:40.922Z,936.83
2022-09-28T10:59:40.916Z,936.76
2022-09-28T11:00:40.897Z,936.82
2022-09-28T11:01:40.931Z,936.86
2022-09-28T11:02:40.912Z,936.90
2022-09-28T11:03:40.903Z,936.92
2022-09-28T11:04:40.852Z,936.98
2022-09-28T11:05:40.843Z,936.88
2022-09-28T11:06:40.823Z,936.95
2022-09-28T11:07:40.842Z,936.96
2022-09-28T11:08:40.802Z,936.93
2022-09-28T11:09:40.799Z,936.87
2022-09-28T11:10:40.791Z,936.96
2022-09-28T11:11:40.781Z,936.97
2022-09-28T11:12:40.761Z,936.94
2022-09-28T11:13:40.781Z,936.88
2022-09-28T11:14:42.762Z,936.91
2022-09-28T11:15:40.729Z,936.88
2022-09-28T11:16:40.740Z,936.87
2022-09-28T11:17:40.742Z,936.83
2022-09-28T11:18:40.691Z,936.81
2022-09-28T11:19:40.691Z,936.83
2022-09-28T11:20:44.231Z,936.84
2022-09-28T11:21:40.660Z,936.84
2022-09-28T11:22:40.660Z,936.78
2022-09-28T11:23:40.650Z,936.84
2022-09-28T11:24:40.629Z,936.81
2022-09-28T11:25:40.620Z,936.83
2022-09-28T11:26:40.602Z,936.83
2022-09-28T11:27:40.590Z,936.70
2022-09-28T11:28:40.590Z,936.70
2022-09-28T11:29:40.568Z,936.74
2022-09-28T11:30:40.664Z,936.73
2022-09-28T11:31:40.548Z,936.68
2022-09-28T11:32:40.539Z,936.68
2022-09-28T11:33:40.527Z,936.67
2022-09-28T11:34:58.771Z,936.67
2022-09-28T11:35:41.498Z,936.71
2022-09-28T11:36:40.489Z,936.77
2022-09-28T11:37:40.477Z,936.71
2022-09-28T11:38:40.484Z,936.79
2022-09-28T11:39:40.467Z,936.78
2022-09-28T11:40:40.526Z,936.74
2022-09-28T11:41:40.426Z,936.81
2022-09-28T11:42:40.444Z,936.86
2022-09-28T11:43:40.426Z,936.78
2022-09-28T11:44:40.397Z,936.79
2022-09-28T11:45:40.458Z,936.82
2022-09-28T11:46:40.376Z,936.80
2022-09-28T11:47:40.357Z,936.82
2022-09-28T11:48:40.352Z,936.87
2022-09-28T11:49:40.351Z,936.84
2022-09-28T11:50:40.329Z,936.90
2022-09-28T11:51:40.327Z,936.88
2022-09-28T11:52:40.315Z,936.84
2022-09-28T11:53:40.295Z,936.78
2022-09-28T11:54:40.335Z,936.75
2022-09-28T11:55:40.274Z,936.73
2022-09-28T11:56:40.275Z,936.69
2022-09-28T11:57:40.294Z,936.79
2022-09-28T11:58:40.244Z,936.73
2022-09-28T11:59:40.224Z,936.71
2022-09-28T12:00:40.243Z,936.75
2022-09-28T12:01:40.204Z,936.76
2022-09-28T12:02:40.281Z,936.72
2022-09-28T12:03:40.374Z,936.74
2022-09-28T12:04:40.165Z,936.73
2022-09-28T12:05:40.171Z,936.77
2022-09-28T12:06:40.151Z,936.75
2022-09-28T12:07:40.133Z,936.76
2022-09-28T12:08:40.122Z,936.87
2022-09-28T12:09:40.111Z,936.91
2022-09-28T12:10:43.403Z,936.88
2022-09-28T12:11:41.100Z,936.90
2022-09-28T12:12:40.082Z,936.84
2022-09-28T12:13:40.061Z,936.86
2022-09-28T12:14:40.059Z,936.81
2022-09-28T12:16:06.833Z,936.87
2022-09-28T12:17:41.128Z,936.84
2022-09-28T12:18:40.018Z,936.76
2022-09-28T12:19:40.037Z,936.76
2022-09-28T12:20:40.003Z,936.77
2022-09-28T12:21:39.997Z,936.88
2022-09-28T12:22:39.973Z,936.90
2022-09-28T12:23:39.959Z,936.94
2022-09-28T12:24:39.952Z,936.95
2022-09-28T12:25:39.932Z,936.98
2022-09-28T12:26:39.931Z,936.98
2022-09-28T12:27:39.921Z,936.96
2022-09-28T12:28:39.900Z,936.88
2022-09-28T12:29:39.889Z,936.91
2022-09-28T12:30:39.921Z,936.89